sensor_id;sensor_type;location;lat;lon;timestamp;P1;durP1;ratioP1;P2;durP2;ratioP2
26512;SDS011;14186;53.822;10.152;2022-12-10T00:03:24;67.25;;;21.88;;
26512;SDS011;14186;53.822;10.152;2022-12-10T00:08:26;66.43;;;21.83;;
26512;SDS011;14186;53.822;10.152;2022-12-10T00:13:26;65.45;;;21.75;;
26512;SDS011;14186;53.822;10.152;2022-12-10T00:18:26;61.25;;;21.38;;
26512;SDS011;14186;53.822;10.152;2022-12-10T00:23:27;61.50;;;20.63;;
26512;SDS011;14186;53.822;10.152;2022-12-10T00:28:28;62.10;;;22.63;;
26512;SDS011;14186;53.822;10.152;2022-12-10T00:33:28;62.20;;;21.15;;
26512;SDS011;14186;53.822;10.152;2022-12-10T00:38:30;59.75;;;20.88;;
26512;SDS011;14186;53.822;10.152;2022-12-10T00:43:30;64.10;;;20.67;;
26512;SDS011;14186;53.822;10.152;2022-12-10T00:48:30;57.75;;;21.50;;
26512;SDS011;14186;53.822;10.152;2022-12-10T00:53:33;68.00;;;22.85;;
26512;SDS011;14186;53.822;10.152;2022-12-10T00:58:33;64.07;;;22.25;;
26512;SDS011;14186;53.822;10.152;2022-12-10T01:03:34;59.85;;;21.80;;
26512;SDS011;14186;53.822;10.152;2022-12-10T01:08:35;60.88;;;21.75;;
26512;SDS011;14186;53.822;10.152;2022-12-10T01:13:36;66.57;;;21.73;;
26512;SDS011;14186;53.822;10.152;2022-12-10T01:18:36;70.30;;;23.15;;
26512;SDS011;14186;53.822;10.152;2022-12-10T01:23:39;60.45;;;20.83;;
26512;SDS011;14186;53.822;10.152;2022-12-10T01:28:40;51.63;;;18.38;;
26512;SDS011;14186;53.822;10.152;2022-12-10T01:33:41;59.42;;;20.42;;
26512;SDS011;14186;53.822;10.152;2022-12-10T01:38:43;58.65;;;20.98;;
26512;SDS011;14186;53.822;10.152;2022-12-10T01:43:54;58.75;;;19.77;;
26512;SDS011;14186;53.822;10.152;2022-12-10T01:48:54;56.13;;;20.02;;
26512;SDS011;14186;53.822;10.152;2022-12-10T01:53:56;60.15;;;20.90;;
26512;SDS011;14186;53.822;10.152;2022-12-10T01:58:56;56.75;;;20.05;;
26512;SDS011;14186;53.822;10.152;2022-12-10T02:03:59;52.28;;;18.65;;
26512;SDS011;14186;53.822;10.152;2022-12-10T02:09:08;48.13;;;18.35;;
26512;SDS011;14186;53.822;10.152;2022-12-10T02:14:13;42.92;;;15.07;;
26512;SDS011;14186;53.822;10.152;2022-12-10T02:19:17;32.30;;;11.85;;
26512;SDS011;14186;53.822;10.152;2022-12-10T02:24:21;26.67;;;11.52;;
26512;SDS011;14186;53.822;10.152;2022-12-10T02:29:25;28.70;;;10.97;;
26512;SDS011;14186;53.822;10.152;2022-12-10T02:34:26;31.35;;;12.05;;
26512;SDS011;14186;53.822;10.152;2022-12-10T02:39:29;27.58;;;12.15;;
26512;SDS011;14186;53.822;10.152;2022-12-10T02:44:33;29.05;;;11.82;;
26512;SDS011;14186;53.822;10.152;2022-12-10T02:49:34;26.83;;;11.20;;
26512;SDS011;14186;53.822;10.152;2022-12-10T02:54:37;30.17;;;12.15;;
26512;SDS011;14186;53.822;10.152;2022-12-10T02:59:40;34.05;;;13.50;;
26512;SDS011;14186;53.822;10.152;2022-12-10T03:04:45;27.52;;;11.52;;
26512;SDS011;14186;53.822;10.152;2022-12-10T03:09:47;23.75;;;9.40;;
26512;SDS011;14186;53.822;10.152;2022-12-10T03:14:50;22.92;;;9.88;;
26512;SDS011;14186;53.822;10.152;2022-12-10T03:19:51;22.98;;;9.13;;
26512;SDS011;14186;53.822;10.152;2022-12-10T03:24:51;22.38;;;9.75;;
26512;SDS011;14186;53.822;10.152;2022-12-10T03:29:54;24.42;;;9.32;;
26512;SDS011;14186;53.822;10.152;2022-12-10T03:34:56;22.60;;;9.32;;
26512;SDS011;14186;53.822;10.152;2022-12-10T03:39:57;21.80;;;8.82;;
26512;SDS011;14186;53.822;10.152;2022-12-10T03:44:59;23.63;;;9.75;;
26512;SDS011;14186;53.822;10.152;2022-12-10T03:49:59;24.38;;;9.55;;
26512;SDS011;14186;53.822;10.152;2022-12-10T03:54:59;20.52;;;8.75;;
26512;SDS011;14186;53.822;10.152;2022-12-10T04:00:02;19.42;;;8.45;;
26512;SDS011;14186;53.822;10.152;2022-12-10T04:05:03;22.95;;;9.73;;
26512;SDS011;14186;53.822;10.152;2022-12-10T04:10:03;22.08;;;8.90;;
26512;SDS011;14186;53.822;10.152;2022-12-10T04:15:06;27.80;;;11.68;;
26512;SDS011;14186;53.822;10.152;2022-12-10T04:20:07;25.45;;;10.52;;
26512;SDS011;14186;53.822;10.152;2022-12-10T04:25:08;24.80;;;10.55;;
26512;SDS011;14186;53.822;10.152;2022-12-10T04:30:12;22.65;;;9.90;;
26512;SDS011;14186;53.822;10.152;2022-12-10T04:35:12;19.75;;;8.90;;
26512;SDS011;14186;53.822;10.152;2022-12-10T04:40:12;22.52;;;9.20;;
26512;SDS011;14186;53.822;10.152;2022-12-10T04:45:14;15.85;;;7.80;;
26512;SDS011;14186;53.822;10.152;2022-12-10T04:50:14;19.77;;;8.45;;
26512;SDS011;14186;53.822;10.152;2022-12-10T04:55:14;23.92;;;10.05;;
26512;SDS011;14186;53.822;10.152;2022-12-10T05:00:16;18.10;;;9.10;;
26512;SDS011;14186;53.822;10.152;2022-12-10T05:05:16;20.40;;;9.35;;
26512;SDS011;14186;53.822;10.152;2022-12-10T05:10:17;19.60;;;8.38;;
26512;SDS011;14186;53.822;10.152;2022-12-10T05:15:18;21.98;;;8.25;;
26512;SDS011;14186;53.822;10.152;2022-12-10T05:20:18;17.75;;;7.35;;
26512;SDS011;14186;53.822;10.152;2022-12-10T05:25:18;17.38;;;8.30;;
26512;SDS011;14186;53.822;10.152;2022-12-10T05:30:20;17.45;;;7.60;;
26512;SDS011;14186;53.822;10.152;2022-12-10T05:35:20;15.60;;;7.50;;
26512;SDS011;14186;53.822;10.152;2022-12-10T05:40:20;19.13;;;8.35;;
26512;SDS011;14186;53.822;10.152;2022-12-10T05:45:22;18.90;;;6.80;;
26512;SDS011;14186;53.822;10.152;2022-12-10T05:50:22;15.45;;;7.03;;
26512;SDS011;14186;53.822;10.152;2022-12-10T05:55:22;15.88;;;7.47;;
26512;SDS011;14186;53.822;10.152;2022-12-10T06:00:24;16.35;;;7.35;;
26512;SDS011;14186;53.822;10.152;2022-12-10T06:05:24;16.35;;;6.65;;
26512;SDS011;14186;53.822;10.152;2022-12-10T06:10:24;16.45;;;6.75;;
26512;SDS011;14186;53.822;10.152;2022-12-10T06:15:26;15.18;;;6.68;;
26512;SDS011;14186;53.822;10.152;2022-12-10T06:20:26;13.95;;;6.65;;
26512;SDS011;14186;53.822;10.152;2022-12-10T06:25:26;16.27;;;7.05;;
26512;SDS011;14186;53.822;10.152;2022-12-10T06:30:28;17.08;;;7.43;;
26512;SDS011;14186;53.822;10.152;2022-12-10T06:35:28;14.63;;;6.22;;
26512;SDS011;14186;53.822;10.152;2022-12-10T06:40:28;15.07;;;6.55;;
26512;SDS011;14186;53.822;10.152;2022-12-10T06:45:30;18.02;;;7.25;;
26512;SDS011;14186;53.822;10.152;2022-12-10T06:50:30;14.25;;;6.43;;
26512;SDS011;14186;53.822;10.152;2022-12-10T06:55:30;15.35;;;6.97;;
26512;SDS011;14186;53.822;10.152;2022-12-10T07:00:32;15.90;;;6.53;;
26512;SDS011;14186;53.822;10.152;2022-12-10T07:05:32;14.00;;;6.30;;
26512;SDS011;14186;53.822;10.152;2022-12-10T07:10:32;19.23;;;6.75;;
26512;SDS011;14186;53.822;10.152;2022-12-10T07:15:34;14.20;;;6.78;;
26512;SDS011;14186;53.822;10.152;2022-12-10T07:20:34;16.83;;;7.10;;
26512;SDS011;14186;53.822;10.152;2022-12-10T07:25:34;14.95;;;6.60;;
26512;SDS011;14186;53.822;10.152;2022-12-10T07:30:35;16.90;;;6.88;;
26512;SDS011;14186;53.822;10.152;2022-12-10T07:35:37;15.75;;;6.82;;
26512;SDS011;14186;53.822;10.152;2022-12-10T07:40:37;14.70;;;6.88;;
26512;SDS011;14186;53.822;10.152;2022-12-10T07:45:39;18.35;;;7.25;;
26512;SDS011;14186;53.822;10.152;2022-12-10T07:50:39;18.30;;;7.18;;
26512;SDS011;14186;53.822;10.152;2022-12-10T07:55:39;20.60;;;7.75;;
26512;SDS011;14186;53.822;10.152;2022-12-10T08:00:41;17.65;;;7.97;;
26512;SDS011;14186;53.822;10.152;2022-12-10T08:05:41;17.83;;;7.95;;
26512;SDS011;14186;53.822;10.152;2022-12-10T08:10:41;18.63;;;8.25;;
26512;SDS011;14186;53.822;10.152;2022-12-10T08:15:43;23.50;;;8.35;;
26512;SDS011;14186;53.822;10.152;2022-12-10T08:20:43;16.10;;;8.15;;
26512;SDS011;14186;53.822;10.152;2022-12-10T08:25:43;20.45;;;9.63;;
26512;SDS011;14186;53.822;10.152;2022-12-10T08:30:46;26.58;;;9.95;;
26512;SDS011;14186;53.822;10.152;2022-12-10T08:35:46;20.38;;;9.38;;
26512;SDS011;14186;53.822;10.152;2022-12-10T08:40:46;21.85;;;9.40;;
26512;SDS011;14186;53.822;10.152;2022-12-10T08:45:48;22.45;;;9.10;;
26512;SDS011;14186;53.822;10.152;2022-12-10T08:50:48;16.65;;;8.50;;
26512;SDS011;14186;53.822;10.152;2022-12-10T08:55:49;21.67;;;8.82;;
26512;SDS011;14186;53.822;10.152;2022-12-10T09:00:51;19.15;;;8.90;;
26512;SDS011;14186;53.822;10.152;2022-12-10T09:05:51;18.25;;;8.40;;
26512;SDS011;14186;53.822;10.152;2022-12-10T09:10:51;17.15;;;8.20;;
26512;SDS011;14186;53.822;10.152;2022-12-10T09:15:52;17.80;;;8.65;;
26512;SDS011;14186;53.822;10.152;2022-12-10T09:20:53;17.83;;;7.45;;
26512;SDS011;14186;53.822;10.152;2022-12-10T09:25:53;15.52;;;7.25;;
26512;SDS011;14186;53.822;10.152;2022-12-10T09:30:58;19.63;;;8.95;;
26512;SDS011;14186;53.822;10.152;2022-12-10T09:35:59;17.88;;;7.97;;
26512;SDS011;14186;53.822;10.152;2022-12-10T09:40:59;16.17;;;7.93;;
26512;SDS011;14186;53.822;10.152;2022-12-10T09:46:04;19.13;;;8.10;;
26512;SDS011;14186;53.822;10.152;2022-12-10T09:51:08;19.20;;;8.23;;
26512;SDS011;14186;53.822;10.152;2022-12-10T09:56:11;19.08;;;8.38;;
26512;SDS011;14186;53.822;10.152;2022-12-10T10:01:16;18.25;;;8.43;;
26512;SDS011;14186;53.822;10.152;2022-12-10T10:06:17;15.70;;;6.82;;
26512;SDS011;14186;53.822;10.152;2022-12-10T10:11:19;16.17;;;7.10;;
26512;SDS011;14186;53.822;10.152;2022-12-10T10:16:25;14.32;;;5.90;;
26512;SDS011;14186;53.822;10.152;2022-12-10T10:21:26;14.23;;;5.57;;
26512;SDS011;14186;53.822;10.152;2022-12-10T10:26:26;15.18;;;6.22;;
26512;SDS011;14186;53.822;10.152;2022-12-10T10:31:29;15.32;;;6.60;;
26512;SDS011;14186;53.822;10.152;2022-12-10T10:36:30;15.48;;;5.80;;
26512;SDS011;14186;53.822;10.152;2022-12-10T10:41:31;24.33;;;8.60;;
26512;SDS011;14186;53.822;10.152;2022-12-10T10:46:36;15.82;;;6.93;;
26512;SDS011;14186;53.822;10.152;2022-12-10T10:51:41;19.10;;;7.60;;
26512;SDS011;14186;53.822;10.152;2022-12-10T10:56:42;16.50;;;7.45;;
26512;SDS011;14186;53.822;10.152;2022-12-10T11:01:45;14.95;;;6.32;;
26512;SDS011;14186;53.822;10.152;2022-12-10T11:06:45;19.25;;;6.57;;
26512;SDS011;14186;53.822;10.152;2022-12-10T11:11:48;13.45;;;6.35;;
26512;SDS011;14186;53.822;10.152;2022-12-10T11:16:51;15.95;;;6.72;;
26512;SDS011;14186;53.822;10.152;2022-12-10T11:22:14;13.73;;;6.68;;
26512;SDS011;14186;53.822;10.152;2022-12-10T11:27:16;15.57;;;7.00;;
26512;SDS011;14186;53.822;10.152;2022-12-10T11:32:23;16.67;;;6.78;;
26512;SDS011;14186;53.822;10.152;2022-12-10T11:37:27;15.07;;;6.93;;
26512;SDS011;14186;53.822;10.152;2022-12-10T11:42:32;20.55;;;8.70;;
26512;SDS011;14186;53.822;10.152;2022-12-10T11:47:39;24.40;;;17.48;;
26512;SDS011;14186;53.822;10.152;2022-12-10T11:52:48;18.13;;;8.57;;
26512;SDS011;14186;53.822;10.152;2022-12-10T11:57:58;17.23;;;7.05;;
26512;SDS011;14186;53.822;10.152;2022-12-10T12:03:07;17.92;;;7.10;;
26512;SDS011;14186;53.822;10.152;2022-12-10T12:08:13;16.00;;;6.20;;
26512;SDS011;14186;53.822;10.152;2022-12-10T12:13:15;18.55;;;8.27;;
26512;SDS011;14186;53.822;10.152;2022-12-10T12:18:20;12.70;;;6.20;;
26512;SDS011;14186;53.822;10.152;2022-12-10T12:23:22;14.82;;;6.55;;
26512;SDS011;14186;53.822;10.152;2022-12-10T12:28:24;16.20;;;7.28;;
26512;SDS011;14186;53.822;10.152;2022-12-10T12:33:28;19.77;;;9.18;;
26512;SDS011;14186;53.822;10.152;2022-12-10T12:38:30;17.10;;;7.03;;
26512;SDS011;14186;53.822;10.152;2022-12-10T12:43:33;15.38;;;7.22;;
26512;SDS011;14186;53.822;10.152;2022-12-10T12:48:41;16.20;;;7.97;;
26512;SDS011;14186;53.822;10.152;2022-12-10T12:53:42;14.68;;;7.40;;
26512;SDS011;14186;53.822;10.152;2022-12-10T12:58:45;13.80;;;6.60;;
26512;SDS011;14186;53.822;10.152;2022-12-10T13:03:48;15.75;;;6.45;;
26512;SDS011;14186;53.822;10.152;2022-12-10T13:08:52;20.95;;;9.82;;
26512;SDS011;14186;53.822;10.152;2022-12-10T13:14:03;17.15;;;8.68;;
26512;SDS011;14186;53.822;10.152;2022-12-10T13:29:45;17.65;;;7.60;;
26512;SDS011;14186;53.822;10.152;2022-12-10T13:34:46;21.20;;;8.45;;
26512;SDS011;14186;53.822;10.152;2022-12-10T13:39:47;15.07;;;7.03;;
26512;SDS011;14186;53.822;10.152;2022-12-10T13:44:58;13.95;;;7.07;;
26512;SDS011;14186;53.822;10.152;2022-12-10T13:49:59;13.93;;;6.35;;
26512;SDS011;14186;53.822;10.152;2022-12-10T13:55:04;13.95;;;7.10;;
26512;SDS011;14186;53.822;10.152;2022-12-10T14:00:13;17.17;;;7.70;;
26512;SDS011;14186;53.822;10.152;2022-12-10T14:05:16;14.80;;;7.05;;
26512;SDS011;14186;53.822;10.152;2022-12-10T14:10:18;12.52;;;6.40;;
26512;SDS011;14186;53.822;10.152;2022-12-10T14:15:22;17.48;;;7.40;;
26512;SDS011;14186;53.822;10.152;2022-12-10T14:20:23;20.70;;;10.52;;
26512;SDS011;14186;53.822;10.152;2022-12-10T14:25:24;18.77;;;7.70;;
26512;SDS011;14186;53.822;10.152;2022-12-10T14:30:26;20.80;;;8.50;;
26512;SDS011;14186;53.822;10.152;2022-12-10T14:35:27;31.48;;;12.15;;
26512;SDS011;14186;53.822;10.152;2022-12-10T14:40:29;23.90;;;9.30;;
26512;SDS011;14186;53.822;10.152;2022-12-10T14:45:46;22.42;;;9.65;;
26512;SDS011;14186;53.822;10.152;2022-12-10T14:50:47;21.08;;;8.63;;
26512;SDS011;14186;53.822;10.152;2022-12-10T14:55:48;26.33;;;10.82;;
26512;SDS011;14186;53.822;10.152;2022-12-10T15:00:50;29.77;;;12.05;;
26512;SDS011;14186;53.822;10.152;2022-12-10T15:05:53;22.88;;;10.20;;
26512;SDS011;14186;53.822;10.152;2022-12-10T15:10:54;14.82;;;6.55;;
26512;SDS011;14186;53.822;10.152;2022-12-10T15:15:56;13.85;;;5.97;;
26512;SDS011;14186;53.822;10.152;2022-12-10T15:21:03;13.18;;;5.70;;
26512;SDS011;14186;53.822;10.152;2022-12-10T15:26:04;11.38;;;5.18;;
26512;SDS011;14186;53.822;10.152;2022-12-10T15:31:13;13.45;;;5.72;;
26512;SDS011;14186;53.822;10.152;2022-12-10T15:36:16;17.63;;;7.22;;
26512;SDS011;14186;53.822;10.152;2022-12-10T15:41:24;16.40;;;6.70;;
26512;SDS011;14186;53.822;10.152;2022-12-10T15:46:33;16.55;;;7.03;;
26512;SDS011;14186;53.822;10.152;2022-12-10T15:51:33;22.13;;;10.18;;
26512;SDS011;14186;53.822;10.152;2022-12-10T15:56:33;16.90;;;7.60;;
26512;SDS011;14186;53.822;10.152;2022-12-10T16:01:35;18.63;;;7.75;;
26512;SDS011;14186;53.822;10.152;2022-12-10T16:06:35;21.65;;;8.95;;
26512;SDS011;14186;53.822;10.152;2022-12-10T16:11:35;18.05;;;7.78;;
26512;SDS011;14186;53.822;10.152;2022-12-10T16:16:36;20.25;;;9.02;;
26512;SDS011;14186;53.822;10.152;2022-12-10T16:21:37;21.77;;;8.20;;
26512;SDS011;14186;53.822;10.152;2022-12-10T16:26:37;21.13;;;8.43;;
26512;SDS011;14186;53.822;10.152;2022-12-10T16:31:39;15.55;;;7.50;;
26512;SDS011;14186;53.822;10.152;2022-12-10T16:36:39;19.98;;;7.50;;
26512;SDS011;14186;53.822;10.152;2022-12-10T16:41:39;19.42;;;7.50;;
26512;SDS011;14186;53.822;10.152;2022-12-10T16:46:41;17.83;;;7.35;;
26512;SDS011;14186;53.822;10.152;2022-12-10T16:51:41;15.57;;;6.43;;
26512;SDS011;14186;53.822;10.152;2022-12-10T16:56:41;16.73;;;7.05;;
26512;SDS011;14186;53.822;10.152;2022-12-10T17:01:43;16.60;;;7.20;;
26512;SDS011;14186;53.822;10.152;2022-12-10T17:06:43;16.77;;;6.80;;
26512;SDS011;14186;53.822;10.152;2022-12-10T17:11:43;19.65;;;9.07;;
26512;SDS011;14186;53.822;10.152;2022-12-10T17:16:45;17.20;;;7.03;;
26512;SDS011;14186;53.822;10.152;2022-12-10T17:21:45;19.95;;;8.48;;
26512;SDS011;14186;53.822;10.152;2022-12-10T17:26:47;19.20;;;7.47;;
26512;SDS011;14186;53.822;10.152;2022-12-10T17:31:49;24.30;;;8.48;;
26512;SDS011;14186;53.822;10.152;2022-12-10T17:36:50;19.08;;;8.15;;
26512;SDS011;14186;53.822;10.152;2022-12-10T17:41:50;18.77;;;7.68;;
26512;SDS011;14186;53.822;10.152;2022-12-10T17:46:51;19.58;;;7.80;;
26512;SDS011;14186;53.822;10.152;2022-12-10T17:51:52;18.05;;;8.18;;
26512;SDS011;14186;53.822;10.152;2022-12-10T17:56:52;23.55;;;9.88;;
26512;SDS011;14186;53.822;10.152;2022-12-10T18:01:54;22.73;;;9.38;;
26512;SDS011;14186;53.822;10.152;2022-12-10T18:06:54;23.23;;;8.65;;
26512;SDS011;14186;53.822;10.152;2022-12-10T18:11:54;18.48;;;7.53;;
26512;SDS011;14186;53.822;10.152;2022-12-10T18:16:55;22.92;;;9.38;;
26512;SDS011;14186;53.822;10.152;2022-12-10T18:21:56;22.27;;;9.52;;
26512;SDS011;14186;53.822;10.152;2022-12-10T18:26:56;23.00;;;9.45;;
26512;SDS011;14186;53.822;10.152;2022-12-10T18:31:57;42.53;;;15.50;;
26512;SDS011;14186;53.822;10.152;2022-12-10T18:36:58;23.48;;;9.70;;
26512;SDS011;14186;53.822;10.152;2022-12-10T18:41:58;18.65;;;8.90;;
26512;SDS011;14186;53.822;10.152;2022-12-10T18:46:59;22.60;;;9.38;;
26512;SDS011;14186;53.822;10.152;2022-12-10T18:52:00;20.80;;;8.65;;
26512;SDS011;14186;53.822;10.152;2022-12-10T18:57:00;18.83;;;8.35;;
26512;SDS011;14186;53.822;10.152;2022-12-10T19:02:01;19.58;;;8.32;;
26512;SDS011;14186;53.822;10.152;2022-12-10T19:07:02;21.92;;;8.82;;
26512;SDS011;14186;53.822;10.152;2022-12-10T19:12:02;18.98;;;7.95;;
26512;SDS011;14186;53.822;10.152;2022-12-10T19:17:04;64.40;;;26.92;;
26512;SDS011;14186;53.822;10.152;2022-12-10T19:22:04;26.65;;;11.48;;
26512;SDS011;14186;53.822;10.152;2022-12-10T19:27:04;34.50;;;15.52;;
26512;SDS011;14186;53.822;10.152;2022-12-10T19:32:06;23.58;;;10.70;;
26512;SDS011;14186;53.822;10.152;2022-12-10T19:37:08;28.17;;;10.82;;
26512;SDS011;14186;53.822;10.152;2022-12-10T19:42:08;26.20;;;11.80;;
26512;SDS011;14186;53.822;10.152;2022-12-10T19:47:11;36.13;;;14.25;;
26512;SDS011;14186;53.822;10.152;2022-12-10T19:52:14;26.30;;;11.27;;
26512;SDS011;14186;53.822;10.152;2022-12-10T19:57:14;29.77;;;13.77;;
26512;SDS011;14186;53.822;10.152;2022-12-10T20:02:16;29.83;;;11.25;;
26512;SDS011;14186;53.822;10.152;2022-12-10T20:07:16;27.70;;;11.02;;
26512;SDS011;14186;53.822;10.152;2022-12-10T20:12:16;25.88;;;10.73;;
26512;SDS011;14186;53.822;10.152;2022-12-10T20:17:18;22.88;;;9.85;;
26512;SDS011;14186;53.822;10.152;2022-12-10T20:22:18;31.20;;;11.88;;
26512;SDS011;14186;53.822;10.152;2022-12-10T20:27:18;25.25;;;10.38;;
26512;SDS011;14186;53.822;10.152;2022-12-10T20:32:20;24.38;;;9.85;;
26512;SDS011;14186;53.822;10.152;2022-12-10T20:37:20;28.10;;;9.82;;
26512;SDS011;14186;53.822;10.152;2022-12-10T20:42:20;27.70;;;10.35;;
26512;SDS011;14186;53.822;10.152;2022-12-10T20:47:22;30.90;;;12.98;;
26512;SDS011;14186;53.822;10.152;2022-12-10T20:52:22;24.38;;;9.88;;
26512;SDS011;14186;53.822;10.152;2022-12-10T20:57:22;24.63;;;9.73;;
26512;SDS011;14186;53.822;10.152;2022-12-10T21:02:23;24.48;;;9.63;;
26512;SDS011;14186;53.822;10.152;2022-12-10T21:07:24;23.58;;;9.80;;
26512;SDS011;14186;53.822;10.152;2022-12-10T21:12:24;20.48;;;9.60;;
26512;SDS011;14186;53.822;10.152;2022-12-10T21:17:25;21.27;;;8.95;;
26512;SDS011;14186;53.822;10.152;2022-12-10T21:22:26;69.15;;;24.48;;
26512;SDS011;14186;53.822;10.152;2022-12-10T21:27:26;19.83;;;8.73;;
26512;SDS011;14186;53.822;10.152;2022-12-10T21:32:27;17.52;;;7.55;;
26512;SDS011;14186;53.822;10.152;2022-12-10T21:37:27;16.40;;;7.07;;
26512;SDS011;14186;53.822;10.152;2022-12-10T21:42:28;19.92;;;7.32;;
26512;SDS011;14186;53.822;10.152;2022-12-10T21:47:29;15.60;;;6.75;;
26512;SDS011;14186;53.822;10.152;2022-12-10T21:52:29;12.73;;;6.15;;
26512;SDS011;14186;53.822;10.152;2022-12-10T21:57:30;13.85;;;6.10;;
26512;SDS011;14186;53.822;10.152;2022-12-10T22:02:31;17.50;;;7.00;;
26512;SDS011;14186;53.822;10.152;2022-12-10T22:07:32;17.15;;;6.75;;
26512;SDS011;14186;53.822;10.152;2022-12-10T22:12:33;16.83;;;7.82;;
26512;SDS011;14186;53.822;10.152;2022-12-10T22:17:35;13.80;;;6.00;;
26512;SDS011;14186;53.822;10.152;2022-12-10T22:22:35;12.35;;;5.80;;
26512;SDS011;14186;53.822;10.152;2022-12-10T22:27:35;16.00;;;6.85;;
26512;SDS011;14186;53.822;10.152;2022-12-10T22:32:37;16.02;;;7.10;;
26512;SDS011;14186;53.822;10.152;2022-12-10T22:37:37;15.02;;;6.68;;
26512;SDS011;14186;53.822;10.152;2022-12-10T22:42:37;14.40;;;6.30;;
26512;SDS011;14186;53.822;10.152;2022-12-10T22:47:39;16.30;;;6.00;;
26512;SDS011;14186;53.822;10.152;2022-12-10T22:52:39;17.52;;;7.78;;
26512;SDS011;14186;53.822;10.152;2022-12-10T22:57:40;13.43;;;6.15;;
26512;SDS011;14186;53.822;10.152;2022-12-10T23:02:41;14.70;;;6.95;;
26512;SDS011;14186;53.822;10.152;2022-12-10T23:07:42;14.48;;;6.40;;
26512;SDS011;14186;53.822;10.152;2022-12-10T23:12:42;17.48;;;7.82;;
26512;SDS011;14186;53.822;10.152;2022-12-10T23:17:43;17.10;;;6.95;;
26512;SDS011;14186;53.822;10.152;2022-12-10T23:22:43;14.05;;;6.22;;
26512;SDS011;14186;53.822;10.152;2022-12-10T23:27:44;15.20;;;6.60;;
26512;SDS011;14186;53.822;10.152;2022-12-10T23:32:45;15.23;;;6.72;;
26512;SDS011;14186;53.822;10.152;2022-12-10T23:37:45;15.65;;;7.32;;
26512;SDS011;14186;53.822;10.152;2022-12-10T23:42:46;17.73;;;7.82;;
26512;SDS011;14186;53.822;10.152;2022-12-10T23:47:47;14.95;;;6.07;;
26512;SDS011;14186;53.822;10.152;2022-12-10T23:52:48;15.40;;;6.35;;
26512;SDS011;14186;53.822;10.152;2022-12-10T23:57:48;16.58;;;6.57;;
